sensor_id;sensor_type;location;lat;lon;timestamp;temperature;humidity
80937;DHT22;70395;51.382;7.074;2023-07-24T00:00:16;20.90;72.90
80937;DHT22;70395;51.382;7.074;2023-07-24T00:02:42;20.90;72.70
80937;DHT22;70395;51.382;7.074;2023-07-24T00:05:08;20.90;72.70
80937;DHT22;70395;51.382;7.074;2023-07-24T00:07:35;20.80;72.70
80937;DHT22;70395;51.382;7.074;2023-07-24T00:10:02;20.80;72.70
80937;DHT22;70395;51.382;7.074;2023-07-24T00:12:28;20.80;72.90
80937;DHT22;70395;51.382;7.074;2023-07-24T00:14:54;20.80;72.70
80937;DHT22;70395;51.382;7.074;2023-07-24T00:17:20;20.80;72.90
80937;DHT22;70395;51.382;7.074;2023-07-24T00:19:45;20.70;72.70
80937;DHT22;70395;51.382;7.074;2023-07-24T00:22:11;20.70;73.50
80937;DHT22;70395;51.382;7.074;2023-07-24T00:24:37;20.80;73.00
80937;DHT22;70395;51.382;7.074;2023-07-24T00:27:03;20.70;73.00
80937;DHT22;70395;51.382;7.074;2023-07-24T00:29:29;20.70;73.00
80937;DHT22;70395;51.382;7.074;2023-07-24T00:31:55;20.80;72.90
80937;DHT22;70395;51.382;7.074;2023-07-24T00:34:20;20.70;72.60
80937;DHT22;70395;51.382;7.074;2023-07-24T00:36:46;20.80;72.60
80937;DHT22;70395;51.382;7.074;2023-07-24T00:39:14;20.70;72.40
80937;DHT22;70395;51.382;7.074;2023-07-24T00:41:41;20.70;72.50
80937;DHT22;70395;51.382;7.074;2023-07-24T00:44:07;20.70;72.50
80937;DHT22;70395;51.382;7.074;2023-07-24T00:46:35;20.70;73.30
80937;DHT22;70395;51.382;7.074;2023-07-24T00:49:02;20.60;72.70
80937;DHT22;70395;51.382;7.074;2023-07-24T00:51:30;20.60;72.70
80937;DHT22;70395;51.382;7.074;2023-07-24T00:53:57;20.60;72.90
80937;DHT22;70395;51.382;7.074;2023-07-24T00:56:27;20.60;72.80
80937;DHT22;70395;51.382;7.074;2023-07-24T00:58:55;20.60;72.90
80937;DHT22;70395;51.382;7.074;2023-07-24T01:01:22;20.60;72.90
80937;DHT22;70395;51.382;7.074;2023-07-24T01:03:49;20.70;73.00
80937;DHT22;70395;51.382;7.074;2023-07-24T01:06:15;20.60;73.10
80937;DHT22;70395;51.382;7.074;2023-07-24T01:08:40;20.70;73.20
80937;DHT22;70395;51.382;7.074;2023-07-24T01:11:18;20.60;73.10
80937;DHT22;70395;51.382;7.074;2023-07-24T01:14:06;20.70;73.40
80937;DHT22;70395;51.382;7.074;2023-07-24T01:16:41;20.70;73.10
80937;DHT22;70395;51.382;7.074;2023-07-24T01:19:46;20.70;72.70
80937;DHT22;70395;51.382;7.074;2023-07-24T01:27:32;20.80;72.50
80937;DHT22;70395;51.382;7.074;2023-07-24T01:29:58;20.80;72.30
80937;DHT22;70395;51.382;7.074;2023-07-24T01:32:24;20.80;72.20
80937;DHT22;70395;51.382;7.074;2023-07-24T01:34:51;20.80;72.10
80937;DHT22;70395;51.382;7.074;2023-07-24T01:37:19;20.80;72.00
80937;DHT22;70395;51.382;7.074;2023-07-24T01:39:46;20.80;72.00
80937;DHT22;70395;51.382;7.074;2023-07-24T01:42:14;20.80;71.90
80937;DHT22;70395;51.382;7.074;2023-07-24T01:44:40;20.80;72.00
80937;DHT22;70395;51.382;7.074;2023-07-24T01:47:06;20.80;71.90
80937;DHT22;70395;51.382;7.074;2023-07-24T01:49:32;20.80;71.80
80937;DHT22;70395;51.382;7.074;2023-07-24T01:51:57;20.70;71.70
80937;DHT22;70395;51.382;7.074;2023-07-24T01:54:23;20.70;71.70
80937;DHT22;70395;51.382;7.074;2023-07-24T01:56:49;20.70;71.80
80937;DHT22;70395;51.382;7.074;2023-07-24T01:59:15;20.70;71.80
80937;DHT22;70395;51.382;7.074;2023-07-24T02:01:41;20.70;71.90
80937;DHT22;70395;51.382;7.074;2023-07-24T02:04:07;20.70;72.00
80937;DHT22;70395;51.382;7.074;2023-07-24T02:06:33;20.60;71.90
80937;DHT22;70395;51.382;7.074;2023-07-24T02:08:58;20.60;71.90
80937;DHT22;70395;51.382;7.074;2023-07-24T02:11:24;20.60;72.70
80937;DHT22;70395;51.382;7.074;2023-07-24T02:13:50;20.60;72.00
80937;DHT22;70395;51.382;7.074;2023-07-24T02:16:16;20.50;72.00
80937;DHT22;70395;51.382;7.074;2023-07-24T02:18:42;20.50;72.50
80937;DHT22;70395;51.382;7.074;2023-07-24T02:21:09;20.40;72.40
80937;DHT22;70395;51.382;7.074;2023-07-24T02:23:35;20.40;72.50
80937;DHT22;70395;51.382;7.074;2023-07-24T02:26:01;20.40;72.40
80937;DHT22;70395;51.382;7.074;2023-07-24T02:28:27;20.40;71.90
80937;DHT22;70395;51.382;7.074;2023-07-24T02:30:53;20.40;72.50
80937;DHT22;70395;51.382;7.074;2023-07-24T02:33:22;20.40;72.70
80937;DHT22;70395;51.382;7.074;2023-07-24T02:35:50;20.40;72.70
80937;DHT22;70395;51.382;7.074;2023-07-24T02:38:17;20.40;72.80
80937;DHT22;70395;51.382;7.074;2023-07-24T02:40:44;20.40;72.70
80937;DHT22;70395;51.382;7.074;2023-07-24T02:43:10;20.40;72.70
80937;DHT22;70395;51.382;7.074;2023-07-24T02:45:37;20.50;72.80
80937;DHT22;70395;51.382;7.074;2023-07-24T02:48:03;20.50;72.70
80937;DHT22;70395;51.382;7.074;2023-07-24T02:50:30;20.50;72.40
80937;DHT22;70395;51.382;7.074;2023-07-24T02:52:57;20.50;72.40
80937;DHT22;70395;51.382;7.074;2023-07-24T02:55:23;20.60;72.80
80937;DHT22;70395;51.382;7.074;2023-07-24T02:57:49;20.60;73.30
80937;DHT22;70395;51.382;7.074;2023-07-24T03:00:15;20.60;72.70
80937;DHT22;70395;51.382;7.074;2023-07-24T03:02:41;20.70;72.40
80937;DHT22;70395;51.382;7.074;2023-07-24T03:05:07;20.70;72.30
80937;DHT22;70395;51.382;7.074;2023-07-24T03:07:33;20.70;72.40
80937;DHT22;70395;51.382;7.074;2023-07-24T03:09:59;20.80;72.40
80937;DHT22;70395;51.382;7.074;2023-07-24T03:12:25;20.80;72.50
80937;DHT22;70395;51.382;7.074;2023-07-24T03:14:51;20.80;72.60
80937;DHT22;70395;51.382;7.074;2023-07-24T03:17:16;20.80;72.70
80937;DHT22;70395;51.382;7.074;2023-07-24T03:19:42;20.80;72.50
80937;DHT22;70395;51.382;7.074;2023-07-24T03:22:08;20.80;72.40
80937;DHT22;70395;51.382;7.074;2023-07-24T03:24:34;20.80;72.30
80937;DHT22;70395;51.382;7.074;2023-07-24T03:27:01;20.80;72.70
80937;DHT22;70395;51.382;7.074;2023-07-24T03:29:27;20.80;72.70
80937;DHT22;70395;51.382;7.074;2023-07-24T03:31:53;20.80;72.60
80937;DHT22;70395;51.382;7.074;2023-07-24T03:34:19;20.80;72.60
80937;DHT22;70395;51.382;7.074;2023-07-24T03:36:45;20.80;72.60
80937;DHT22;70395;51.382;7.074;2023-07-24T03:39:11;20.80;72.60
80937;DHT22;70395;51.382;7.074;2023-07-24T03:41:37;20.80;72.60
80937;DHT22;70395;51.382;7.074;2023-07-24T03:44:04;20.80;72.90
80937;DHT22;70395;51.382;7.074;2023-07-24T03:46:32;20.70;72.60
80937;DHT22;70395;51.382;7.074;2023-07-24T03:48:58;20.70;72.60
80937;DHT22;70395;51.382;7.074;2023-07-24T03:51:24;20.70;72.50
80937;DHT22;70395;51.382;7.074;2023-07-24T03:53:49;20.80;72.60
80937;DHT22;70395;51.382;7.074;2023-07-24T03:56:16;20.70;72.50
80937;DHT22;70395;51.382;7.074;2023-07-24T03:58:41;20.70;72.50
80937;DHT22;70395;51.382;7.074;2023-07-24T04:01:08;20.70;72.70
80937;DHT22;70395;51.382;7.074;2023-07-24T04:03:35;20.70;72.60
80937;DHT22;70395;51.382;7.074;2023-07-24T04:06:01;20.70;72.50
80937;DHT22;70395;51.382;7.074;2023-07-24T04:08:27;20.70;72.70
80937;DHT22;70395;51.382;7.074;2023-07-24T04:10:53;20.70;72.50
80937;DHT22;70395;51.382;7.074;2023-07-24T04:13:21;20.70;72.60
80937;DHT22;70395;51.382;7.074;2023-07-24T04:15:47;20.70;72.50
80937;DHT22;70395;51.382;7.074;2023-07-24T04:18:13;20.60;72.40
80937;DHT22;70395;51.382;7.074;2023-07-24T04:20:39;20.60;72.40
80937;DHT22;70395;51.382;7.074;2023-07-24T04:23:05;20.70;72.60
80937;DHT22;70395;51.382;7.074;2023-07-24T04:25:31;20.70;72.40
80937;DHT22;70395;51.382;7.074;2023-07-24T04:27:57;20.70;72.60
80937;DHT22;70395;51.382;7.074;2023-07-24T04:30:22;20.70;72.60
80937;DHT22;70395;51.382;7.074;2023-07-24T04:32:48;20.70;72.50
80937;DHT22;70395;51.382;7.074;2023-07-24T04:35:15;20.70;72.60
80937;DHT22;70395;51.382;7.074;2023-07-24T04:37:40;20.70;72.50
80937;DHT22;70395;51.382;7.074;2023-07-24T04:40:07;20.70;72.50
80937;DHT22;70395;51.382;7.074;2023-07-24T04:42:33;20.70;72.20
80937;DHT22;70395;51.382;7.074;2023-07-24T04:44:58;20.70;72.30
80937;DHT22;70395;51.382;7.074;2023-07-24T04:47:24;20.70;72.50
80937;DHT22;70395;51.382;7.074;2023-07-24T04:49:50;20.70;72.40
80937;DHT22;70395;51.382;7.074;2023-07-24T04:52:16;20.80;72.40
80937;DHT22;70395;51.382;7.074;2023-07-24T04:54:41;20.80;72.40
80937;DHT22;70395;51.382;7.074;2023-07-24T04:57:07;20.80;72.50
80937;DHT22;70395;51.382;7.074;2023-07-24T04:59:33;20.80;72.20
80937;DHT22;70395;51.382;7.074;2023-07-24T05:01:59;20.80;72.10
80937;DHT22;70395;51.382;7.074;2023-07-24T05:04:24;20.80;72.20
80937;DHT22;70395;51.382;7.074;2023-07-24T05:06:50;20.80;72.20
80937;DHT22;70395;51.382;7.074;2023-07-24T05:09:16;20.80;72.40
80937;DHT22;70395;51.382;7.074;2023-07-24T05:11:42;20.80;72.50
80937;DHT22;70395;51.382;7.074;2023-07-24T05:14:10;20.80;72.50
80937;DHT22;70395;51.382;7.074;2023-07-24T05:16:36;20.80;72.60
80937;DHT22;70395;51.382;7.074;2023-07-24T05:19:02;20.80;72.90
80937;DHT22;70395;51.382;7.074;2023-07-24T05:21:28;20.80;72.80
80937;DHT22;70395;51.382;7.074;2023-07-24T05:23:53;20.90;73.00
80937;DHT22;70395;51.382;7.074;2023-07-24T05:26:19;20.90;73.10
80937;DHT22;70395;51.382;7.074;2023-07-24T05:28:47;20.90;73.00
80937;DHT22;70395;51.382;7.074;2023-07-24T05:31:13;21.00;73.10
80937;DHT22;70395;51.382;7.074;2023-07-24T05:33:39;21.00;73.10
80937;DHT22;70395;51.382;7.074;2023-07-24T05:36:05;21.10;73.10
80937;DHT22;70395;51.382;7.074;2023-07-24T05:38:31;21.10;72.90
80937;DHT22;70395;51.382;7.074;2023-07-24T05:40:57;21.10;72.80
80937;DHT22;70395;51.382;7.074;2023-07-24T05:43:24;21.10;72.70
80937;DHT22;70395;51.382;7.074;2023-07-24T05:45:51;21.10;72.40
80937;DHT22;70395;51.382;7.074;2023-07-24T05:48:18;21.10;72.40
80937;DHT22;70395;51.382;7.074;2023-07-24T05:50:43;21.20;72.50
80937;DHT22;70395;51.382;7.074;2023-07-24T05:53:09;21.20;72.50
80937;DHT22;70395;51.382;7.074;2023-07-24T05:55:35;21.20;72.50
80937;DHT22;70395;51.382;7.074;2023-07-24T05:58:01;21.20;72.40
80937;DHT22;70395;51.382;7.074;2023-07-24T06:00:27;21.30;72.50
80937;DHT22;70395;51.382;7.074;2023-07-24T06:02:53;21.30;72.30
80937;DHT22;70395;51.382;7.074;2023-07-24T06:05:19;21.30;72.10
80937;DHT22;70395;51.382;7.074;2023-07-24T06:07:46;21.40;72.20
80937;DHT22;70395;51.382;7.074;2023-07-24T06:10:12;21.30;71.80
80937;DHT22;70395;51.382;7.074;2023-07-24T06:12:38;21.40;72.00
80937;DHT22;70395;51.382;7.074;2023-07-24T06:15:05;21.40;72.00
80937;DHT22;70395;51.382;7.074;2023-07-24T06:17:32;21.40;72.00
80937;DHT22;70395;51.382;7.074;2023-07-24T06:19:58;21.40;72.20
80937;DHT22;70395;51.382;7.074;2023-07-24T06:22:24;21.50;72.00
80937;DHT22;70395;51.382;7.074;2023-07-24T06:24:50;21.50;72.10
80937;DHT22;70395;51.382;7.074;2023-07-24T06:27:16;21.60;71.80
80937;DHT22;70395;51.382;7.074;2023-07-24T06:29:42;21.70;71.60
80937;DHT22;70395;51.382;7.074;2023-07-24T06:32:08;21.70;71.20
80937;DHT22;70395;51.382;7.074;2023-07-24T06:34:34;21.70;71.20
80937;DHT22;70395;51.382;7.074;2023-07-24T06:37:00;21.70;71.10
80937;DHT22;70395;51.382;7.074;2023-07-24T06:39:26;21.70;71.10
80937;DHT22;70395;51.382;7.074;2023-07-24T06:41:54;21.80;71.60
80937;DHT22;70395;51.382;7.074;2023-07-24T06:44:21;21.90;71.10
80937;DHT22;70395;51.382;7.074;2023-07-24T06:46:47;22.00;71.60
80937;DHT22;70395;51.382;7.074;2023-07-24T06:49:13;22.10;72.60
80937;DHT22;70395;51.382;7.074;2023-07-24T06:51:39;22.20;71.30
80937;DHT22;70395;51.382;7.074;2023-07-24T06:54:05;22.30;70.70
80937;DHT22;70395;51.382;7.074;2023-07-24T06:56:31;22.40;69.70
80937;DHT22;70395;51.382;7.074;2023-07-24T06:58:57;22.50;70.00
80937;DHT22;70395;51.382;7.074;2023-07-24T07:01:23;22.60;70.50
80937;DHT22;70395;51.382;7.074;2023-07-24T07:03:49;22.70;70.20
80937;DHT22;70395;51.382;7.074;2023-07-24T07:06:15;22.80;69.80
80937;DHT22;70395;51.382;7.074;2023-07-24T07:08:41;22.90;70.40
80937;DHT22;70395;51.382;7.074;2023-07-24T07:11:07;23.00;68.80
80937;DHT22;70395;51.382;7.074;2023-07-24T07:13:33;23.10;68.60
80937;DHT22;70395;51.382;7.074;2023-07-24T07:15:58;23.10;68.10
80937;DHT22;70395;51.382;7.074;2023-07-24T07:18:24;23.20;68.40
80937;DHT22;70395;51.382;7.074;2023-07-24T07:20:52;23.30;67.60
80937;DHT22;70395;51.382;7.074;2023-07-24T07:23:19;23.30;67.10
80937;DHT22;70395;51.382;7.074;2023-07-24T07:25:45;23.30;66.90
80937;DHT22;70395;51.382;7.074;2023-07-24T07:28:15;23.20;66.50
80937;DHT22;70395;51.382;7.074;2023-07-24T07:30:43;23.20;66.50
80937;DHT22;70395;51.382;7.074;2023-07-24T07:33:09;23.10;66.50
80937;DHT22;70395;51.382;7.074;2023-07-24T07:35:35;23.10;67.30
80937;DHT22;70395;51.382;7.074;2023-07-24T07:38:02;23.00;66.60
80937;DHT22;70395;51.382;7.074;2023-07-24T07:40:29;23.00;66.90
80937;DHT22;70395;51.382;7.074;2023-07-24T07:42:56;22.90;66.70
80937;DHT22;70395;51.382;7.074;2023-07-24T07:45:23;22.90;66.70
80937;DHT22;70395;51.382;7.074;2023-07-24T07:47:49;22.90;66.50
80937;DHT22;70395;51.382;7.074;2023-07-24T07:50:15;22.80;66.50
80937;DHT22;70395;51.382;7.074;2023-07-24T07:52:41;22.80;66.40
80937;DHT22;70395;51.382;7.074;2023-07-24T07:55:07;22.80;66.20
80937;DHT22;70395;51.382;7.074;2023-07-24T07:57:36;22.90;66.60
80937;DHT22;70395;51.382;7.074;2023-07-24T08:00:04;22.90;66.80
80937;DHT22;70395;51.382;7.074;2023-07-24T08:02:31;22.90;66.50
80937;DHT22;70395;51.382;7.074;2023-07-24T08:04:58;23.00;66.30
80937;DHT22;70395;51.382;7.074;2023-07-24T08:07:24;23.00;66.60
80937;DHT22;70395;51.382;7.074;2023-07-24T08:09:50;23.00;66.50
80937;DHT22;70395;51.382;7.074;2023-07-24T08:12:16;23.00;66.00
80937;DHT22;70395;51.382;7.074;2023-07-24T08:14:42;23.10;66.20
80937;DHT22;70395;51.382;7.074;2023-07-24T08:17:07;23.20;66.20
80937;DHT22;70395;51.382;7.074;2023-07-24T08:19:33;23.20;66.30
80937;DHT22;70395;51.382;7.074;2023-07-24T08:21:59;23.40;65.90
80937;DHT22;70395;51.382;7.074;2023-07-24T08:24:25;23.50;66.20
80937;DHT22;70395;51.382;7.074;2023-07-24T08:26:51;23.70;65.70
80937;DHT22;70395;51.382;7.074;2023-07-24T08:29:16;23.80;64.20
80937;DHT22;70395;51.382;7.074;2023-07-24T08:31:42;24.00;64.40
80937;DHT22;70395;51.382;7.074;2023-07-24T08:34:08;24.10;63.80
80937;DHT22;70395;51.382;7.074;2023-07-24T08:36:34;24.20;63.10
80937;DHT22;70395;51.382;7.074;2023-07-24T08:39:00;24.30;63.10
80937;DHT22;70395;51.382;7.074;2023-07-24T08:41:26;24.40;62.60
80937;DHT22;70395;51.382;7.074;2023-07-24T08:43:52;24.40;62.50
80937;DHT22;70395;51.382;7.074;2023-07-24T08:46:19;24.50;62.60
80937;DHT22;70395;51.382;7.074;2023-07-24T08:48:46;24.40;62.10
80937;DHT22;70395;51.382;7.074;2023-07-24T08:51:13;24.40;62.10
80937;DHT22;70395;51.382;7.074;2023-07-24T08:53:42;24.40;61.60
80937;DHT22;70395;51.382;7.074;2023-07-24T08:56:12;24.40;62.00
80937;DHT22;70395;51.382;7.074;2023-07-24T08:58:38;24.40;61.80
80937;DHT22;70395;51.382;7.074;2023-07-24T09:01:08;24.30;61.80
80937;DHT22;70395;51.382;7.074;2023-07-24T09:03:34;24.30;61.70
80937;DHT22;70395;51.382;7.074;2023-07-24T09:06:01;24.40;62.10
80937;DHT22;70395;51.382;7.074;2023-07-24T09:11:07;24.30;61.30
80937;DHT22;70395;51.382;7.074;2023-07-24T09:13:36;24.30;61.40
80937;DHT22;70395;51.382;7.074;2023-07-24T09:16:03;24.30;62.00
80937;DHT22;70395;51.382;7.074;2023-07-24T09:18:42;24.20;61.30
80937;DHT22;70395;51.382;7.074;2023-07-24T09:21:09;24.20;61.20
80937;DHT22;70395;51.382;7.074;2023-07-24T09:23:37;24.20;61.60
80937;DHT22;70395;51.382;7.074;2023-07-24T09:26:07;24.10;61.10
80937;DHT22;70395;51.382;7.074;2023-07-24T09:28:34;24.10;61.10
80937;DHT22;70395;51.382;7.074;2023-07-24T09:31:00;24.10;61.00
80937;DHT22;70395;51.382;7.074;2023-07-24T09:33:40;24.00;61.60
80937;DHT22;70395;51.382;7.074;2023-07-24T09:36:08;24.00;61.10
80937;DHT22;70395;51.382;7.074;2023-07-24T09:38:35;24.00;61.20
80937;DHT22;70395;51.382;7.074;2023-07-24T09:41:05;23.90;61.20
80937;DHT22;70395;51.382;7.074;2023-07-24T09:43:32;23.90;61.40
80937;DHT22;70395;51.382;7.074;2023-07-24T09:46:01;23.80;61.40
80937;DHT22;70395;51.382;7.074;2023-07-24T09:48:31;23.70;61.70
80937;DHT22;70395;51.382;7.074;2023-07-24T09:50:59;23.70;61.60
80937;DHT22;70395;51.382;7.074;2023-07-24T09:53:32;23.60;61.80
80937;DHT22;70395;51.382;7.074;2023-07-24T09:56:20;23.60;62.00
80937;DHT22;70395;51.382;7.074;2023-07-24T09:58:48;23.60;62.40
80937;DHT22;70395;51.382;7.074;2023-07-24T10:01:19;23.60;62.50
80937;DHT22;70395;51.382;7.074;2023-07-24T10:03:49;23.50;63.20
80937;DHT22;70395;51.382;7.074;2023-07-24T10:06:16;23.50;63.80
80937;DHT22;70395;51.382;7.074;2023-07-24T10:08:43;23.40;63.90
80937;DHT22;70395;51.382;7.074;2023-07-24T10:11:13;23.30;64.20
80937;DHT22;70395;51.382;7.074;2023-07-24T10:13:40;23.30;65.40
80937;DHT22;70395;51.382;7.074;2023-07-24T10:16:07;23.30;66.60
80937;DHT22;70395;51.382;7.074;2023-07-24T10:18:34;23.40;68.60
80937;DHT22;70395;51.382;7.074;2023-07-24T10:21:09;23.70;68.50
80937;DHT22;70395;51.382;7.074;2023-07-24T10:23:37;24.10;68.90
80937;DHT22;70395;51.382;7.074;2023-07-24T10:26:07;24.40;67.40
80937;DHT22;70395;51.382;7.074;2023-07-24T10:28:35;24.70;65.90
80937;DHT22;70395;51.382;7.074;2023-07-24T10:31:25;24.90;66.30
80937;DHT22;70395;51.382;7.074;2023-07-24T10:33:52;25.30;67.00
80937;DHT22;70395;51.382;7.074;2023-07-24T10:36:19;25.60;65.90
80937;DHT22;70395;51.382;7.074;2023-07-24T10:38:53;26.00;65.10
80937;DHT22;70395;51.382;7.074;2023-07-24T10:41:20;26.20;63.10
80937;DHT22;70395;51.382;7.074;2023-07-24T10:46:19;26.50;61.40
80937;DHT22;70395;51.382;7.074;2023-07-24T10:48:47;26.50;60.40
80937;DHT22;70395;51.382;7.074;2023-07-24T10:51:14;26.60;60.10
80937;DHT22;70395;51.382;7.074;2023-07-24T10:53:45;26.70;60.80
80937;DHT22;70395;51.382;7.074;2023-07-24T10:56:16;26.70;59.50
80937;DHT22;70395;51.382;7.074;2023-07-24T10:58:42;26.70;59.10
80937;DHT22;70395;51.382;7.074;2023-07-24T11:01:09;26.70;58.80
80937;DHT22;70395;51.382;7.074;2023-07-24T11:03:37;26.50;58.10
80937;DHT22;70395;51.382;7.074;2023-07-24T11:06:05;26.30;57.50
80937;DHT22;70395;51.382;7.074;2023-07-24T11:08:39;26.10;58.40
80937;DHT22;70395;51.382;7.074;2023-07-24T11:11:05;25.90;58.90
80937;DHT22;70395;51.382;7.074;2023-07-24T11:13:33;25.70;59.10
80937;DHT22;70395;51.382;7.074;2023-07-24T11:16:05;25.60;59.30
80937;DHT22;70395;51.382;7.074;2023-07-24T11:18:32;25.40;60.10
80937;DHT22;70395;51.382;7.074;2023-07-24T11:20:58;25.30;60.40
80937;DHT22;70395;51.382;7.074;2023-07-24T11:23:24;25.20;61.10
80937;DHT22;70395;51.382;7.074;2023-07-24T11:25:53;25.10;61.20
80937;DHT22;70395;51.382;7.074;2023-07-24T11:28:20;25.00;61.50
80937;DHT22;70395;51.382;7.074;2023-07-24T11:30:46;24.90;61.60
80937;DHT22;70395;51.382;7.074;2023-07-24T11:33:14;24.80;60.80
80937;DHT22;70395;51.382;7.074;2023-07-24T11:35:42;24.70;62.10
80937;DHT22;70395;51.382;7.074;2023-07-24T11:38:09;24.50;62.90
80937;DHT22;70395;51.382;7.074;2023-07-24T11:40:40;24.40;63.60
80937;DHT22;70395;51.382;7.074;2023-07-24T11:43:18;24.20;62.70
80937;DHT22;70395;51.382;7.074;2023-07-24T11:45:45;24.10;64.40
80937;DHT22;70395;51.382;7.074;2023-07-24T11:48:18;24.00;64.10
80937;DHT22;70395;51.382;7.074;2023-07-24T11:50:48;23.90;64.40
80937;DHT22;70395;51.382;7.074;2023-07-24T11:53:29;23.80;65.30
80937;DHT22;70395;51.382;7.074;2023-07-24T11:55:59;23.60;65.90
80937;DHT22;70395;51.382;7.074;2023-07-24T11:58:28;23.50;64.20
80937;DHT22;70395;51.382;7.074;2023-07-24T12:00:55;23.20;60.40
80937;DHT22;70395;51.382;7.074;2023-07-24T12:03:27;22.80;60.50
80937;DHT22;70395;51.382;7.074;2023-07-24T12:05:54;22.40;61.00
80937;DHT22;70395;51.382;7.074;2023-07-24T12:08:21;22.10;61.50
80937;DHT22;70395;51.382;7.074;2023-07-24T12:10:59;21.70;61.30
80937;DHT22;70395;51.382;7.074;2023-07-24T12:13:25;21.30;62.50
80937;DHT22;70395;51.382;7.074;2023-07-24T12:15:51;21.00;62.60
80937;DHT22;70395;51.382;7.074;2023-07-24T12:18:17;20.70;62.40
80937;DHT22;70395;51.382;7.074;2023-07-24T12:20:42;20.50;62.60
80937;DHT22;70395;51.382;7.074;2023-07-24T12:23:08;20.20;62.90
80937;DHT22;70395;51.382;7.074;2023-07-24T12:25:34;20.00;63.20
80937;DHT22;70395;51.382;7.074;2023-07-24T12:28:00;19.80;63.50
80937;DHT22;70395;51.382;7.074;2023-07-24T12:30:26;19.50;63.80
80937;DHT22;70395;51.382;7.074;2023-07-24T12:32:51;19.40;64.20
80937;DHT22;70395;51.382;7.074;2023-07-24T12:35:17;19.30;64.50
80937;DHT22;70395;51.382;7.074;2023-07-24T12:37:44;19.20;64.60
80937;DHT22;70395;51.382;7.074;2023-07-24T12:40:11;19.10;64.90
80937;DHT22;70395;51.382;7.074;2023-07-24T12:42:37;19.00;66.10
80937;DHT22;70395;51.382;7.074;2023-07-24T12:45:03;19.00;67.50
80937;DHT22;70395;51.382;7.074;2023-07-24T12:47:30;19.00;68.20
80937;DHT22;70395;51.382;7.074;2023-07-24T12:49:57;19.00;68.70
80937;DHT22;70395;51.382;7.074;2023-07-24T12:52:24;19.20;70.40
80937;DHT22;70395;51.382;7.074;2023-07-24T12:54:51;19.40;71.60
80937;DHT22;70395;51.382;7.074;2023-07-24T12:57:17;19.80;74.20
80937;DHT22;70395;51.382;7.074;2023-07-24T12:59:43;20.30;75.10
80937;DHT22;70395;51.382;7.074;2023-07-24T13:02:09;20.90;74.80
80937;DHT22;70395;51.382;7.074;2023-07-24T13:04:35;21.50;74.80
80937;DHT22;70395;51.382;7.074;2023-07-24T13:07:01;22.30;74.00
80937;DHT22;70395;51.382;7.074;2023-07-24T13:09:27;23.00;70.60
80937;DHT22;70395;51.382;7.074;2023-07-24T13:11:53;23.80;69.10
80937;DHT22;70395;51.382;7.074;2023-07-24T13:14:20;24.50;68.80
80937;DHT22;70395;51.382;7.074;2023-07-24T13:16:46;25.20;65.20
80937;DHT22;70395;51.382;7.074;2023-07-24T13:19:12;26.00;65.10
80937;DHT22;70395;51.382;7.074;2023-07-24T13:21:38;26.70;62.10
80937;DHT22;70395;51.382;7.074;2023-07-24T13:24:09;27.20;60.70
80937;DHT22;70395;51.382;7.074;2023-07-24T13:26:35;27.70;59.60
80937;DHT22;70395;51.382;7.074;2023-07-24T13:29:01;28.20;58.20
80937;DHT22;70395;51.382;7.074;2023-07-24T13:31:28;28.50;57.20
80937;DHT22;70395;51.382;7.074;2023-07-24T13:33:56;28.90;56.60
80937;DHT22;70395;51.382;7.074;2023-07-24T13:36:21;29.20;56.10
80937;DHT22;70395;51.382;7.074;2023-07-24T13:38:47;29.40;54.70
80937;DHT22;70395;51.382;7.074;2023-07-24T13:41:13;29.60;54.00
80937;DHT22;70395;51.382;7.074;2023-07-24T13:43:39;29.70;54.00
80937;DHT22;70395;51.382;7.074;2023-07-24T13:46:05;29.90;54.30
80937;DHT22;70395;51.382;7.074;2023-07-24T13:48:32;30.00;54.30
80937;DHT22;70395;51.382;7.074;2023-07-24T13:50:58;30.20;53.50
80937;DHT22;70395;51.382;7.074;2023-07-24T13:53:24;30.30;52.00
80937;DHT22;70395;51.382;7.074;2023-07-24T13:55:50;30.40;51.40
80937;DHT22;70395;51.382;7.074;2023-07-24T13:58:16;30.50;51.10
80937;DHT22;70395;51.382;7.074;2023-07-24T14:00:42;30.70;51.50
80937;DHT22;70395;51.382;7.074;2023-07-24T14:03:08;30.80;51.40
80937;DHT22;70395;51.382;7.074;2023-07-24T14:05:34;31.00;52.10
80937;DHT22;70395;51.382;7.074;2023-07-24T14:08:02;31.30;50.30
80937;DHT22;70395;51.382;7.074;2023-07-24T14:10:28;31.40;48.90
80937;DHT22;70395;51.382;7.074;2023-07-24T14:12:54;31.40;48.40
80937;DHT22;70395;51.382;7.074;2023-07-24T14:15:20;31.40;48.30
80937;DHT22;70395;51.382;7.074;2023-07-24T14:17:46;31.20;48.90
80937;DHT22;70395;51.382;7.074;2023-07-24T14:20:12;31.10;49.10
80937;DHT22;70395;51.382;7.074;2023-07-24T14:22:38;31.10;49.50
80937;DHT22;70395;51.382;7.074;2023-07-24T14:25:05;30.90;49.10
80937;DHT22;70395;51.382;7.074;2023-07-24T14:27:34;30.70;48.80
80937;DHT22;70395;51.382;7.074;2023-07-24T14:29:59;30.30;49.50
80937;DHT22;70395;51.382;7.074;2023-07-24T14:32:25;29.90;50.00
80937;DHT22;70395;51.382;7.074;2023-07-24T14:34:52;29.50;50.80
80937;DHT22;70395;51.382;7.074;2023-07-24T14:37:19;29.10;51.30
80937;DHT22;70395;51.382;7.074;2023-07-24T14:39:45;28.70;52.00
80937;DHT22;70395;51.382;7.074;2023-07-24T14:42:11;28.30;52.60
80937;DHT22;70395;51.382;7.074;2023-07-24T14:44:37;27.90;53.60
80937;DHT22;70395;51.382;7.074;2023-07-24T14:47:03;27.60;54.10
80937;DHT22;70395;51.382;7.074;2023-07-24T14:49:29;27.20;54.80
80937;DHT22;70395;51.382;7.074;2023-07-24T14:51:55;26.90;55.70
80937;DHT22;70395;51.382;7.074;2023-07-24T14:54:22;26.60;56.60
80937;DHT22;70395;51.382;7.074;2023-07-24T14:56:48;26.40;56.70
80937;DHT22;70395;51.382;7.074;2023-07-24T14:59:15;26.10;57.50
80937;DHT22;70395;51.382;7.074;2023-07-24T15:01:40;25.90;58.00
80937;DHT22;70395;51.382;7.074;2023-07-24T15:04:06;25.70;58.80
80937;DHT22;70395;51.382;7.074;2023-07-24T15:06:32;25.50;58.70
80937;DHT22;70395;51.382;7.074;2023-07-24T15:08:58;25.30;59.30
80937;DHT22;70395;51.382;7.074;2023-07-24T15:11:24;25.10;59.50
80937;DHT22;70395;51.382;7.074;2023-07-24T15:13:53;24.90;60.10
80937;DHT22;70395;51.382;7.074;2023-07-24T15:16:20;24.70;60.00
80937;DHT22;70395;51.382;7.074;2023-07-24T15:18:46;24.60;60.10
80937;DHT22;70395;51.382;7.074;2023-07-24T15:21:13;24.50;60.60
80937;DHT22;70395;51.382;7.074;2023-07-24T15:23:39;24.60;61.10
80937;DHT22;70395;51.382;7.074;2023-07-24T15:26:05;24.60;61.70
80937;DHT22;70395;51.382;7.074;2023-07-24T15:28:31;24.70;62.30
80937;DHT22;70395;51.382;7.074;2023-07-24T15:30:56;24.90;62.90
80937;DHT22;70395;51.382;7.074;2023-07-24T15:33:22;25.20;61.40
80937;DHT22;70395;51.382;7.074;2023-07-24T15:35:49;25.50;61.20
80937;DHT22;70395;51.382;7.074;2023-07-24T15:38:15;25.80;59.70